sensor_id;sensor_type;location;lat;lon;timestamp;P1;durP1;ratioP1;P2;durP2;ratioP2
13040;SDS011;6587;42.728;23.288;2022-09-21T00:01:57;6.97;;;4.90;;
13040;SDS011;6587;42.728;23.288;2022-09-21T00:04:24;6.53;;;4.40;;
13040;SDS011;6587;42.728;23.288;2022-09-21T00:06:51;6.40;;;4.97;;
13040;SDS011;6587;42.728;23.288;2022-09-21T00:09:19;5.03;;;4.37;;
13040;SDS011;6587;42.728;23.288;2022-09-21T00:11:46;8.87;;;4.57;;
13040;SDS011;6587;42.728;23.288;2022-09-21T00:14:13;5.10;;;3.90;;
13040;SDS011;6587;42.728;23.288;2022-09-21T00:16:41;6.23;;;4.30;;
13040;SDS011;6587;42.728;23.288;2022-09-21T00:19:08;6.60;;;4.27;;
13040;SDS011;6587;42.728;23.288;2022-09-21T00:21:36;6.37;;;4.23;;
13040;SDS011;6587;42.728;23.288;2022-09-21T00:24:03;4.90;;;3.93;;
13040;SDS011;6587;42.728;23.288;2022-09-21T00:26:32;6.03;;;4.03;;
13040;SDS011;6587;42.728;23.288;2022-09-21T00:29:00;5.07;;;4.20;;
13040;SDS011;6587;42.728;23.288;2022-09-21T00:31:28;5.20;;;4.10;;
13040;SDS011;6587;42.728;23.288;2022-09-21T00:33:56;5.13;;;4.30;;
13040;SDS011;6587;42.728;23.288;2022-09-21T00:36:24;4.67;;;4.03;;
13040;SDS011;6587;42.728;23.288;2022-09-21T00:38:52;5.27;;;4.17;;
13040;SDS011;6587;42.728;23.288;2022-09-21T00:41:21;5.53;;;4.17;;
13040;SDS011;6587;42.728;23.288;2022-09-21T00:44:15;7.77;;;4.40;;
13040;SDS011;6587;42.728;23.288;2022-09-21T00:46:57;5.50;;;4.53;;
13040;SDS011;6587;42.728;23.288;2022-09-21T00:49:28;6.43;;;4.77;;
13040;SDS011;6587;42.728;23.288;2022-09-21T00:51:58;4.60;;;4.20;;
13040;SDS011;6587;42.728;23.288;2022-09-21T00:54:29;5.30;;;4.50;;
13040;SDS011;6587;42.728;23.288;2022-09-21T00:56:58;7.90;;;4.87;;
13040;SDS011;6587;42.728;23.288;2022-09-21T00:59:27;5.03;;;4.53;;
13040;SDS011;6587;42.728;23.288;2022-09-21T01:01:57;4.83;;;4.33;;
13040;SDS011;6587;42.728;23.288;2022-09-21T01:04:24;5.07;;;4.10;;
13040;SDS011;6587;42.728;23.288;2022-09-21T01:06:52;6.87;;;4.93;;
13040;SDS011;6587;42.728;23.288;2022-09-21T01:09:22;6.73;;;4.90;;
13040;SDS011;6587;42.728;23.288;2022-09-21T01:11:53;6.37;;;4.77;;
13040;SDS011;6587;42.728;23.288;2022-09-21T01:14:39;8.90;;;4.90;;
13040;SDS011;6587;42.728;23.288;2022-09-21T01:17:22;5.73;;;4.53;;
13040;SDS011;6587;42.728;23.288;2022-09-21T01:20:22;5.87;;;5.20;;
13040;SDS011;6587;42.728;23.288;2022-09-21T01:23:39;6.00;;;4.63;;
13040;SDS011;6587;42.728;23.288;2022-09-21T01:26:15;5.93;;;4.80;;
13040;SDS011;6587;42.728;23.288;2022-09-21T01:29:11;5.53;;;4.83;;
13040;SDS011;6587;42.728;23.288;2022-09-21T01:31:47;7.03;;;4.60;;
13040;SDS011;6587;42.728;23.288;2022-09-21T01:34:23;6.50;;;4.80;;
13040;SDS011;6587;42.728;23.288;2022-09-21T01:36:55;5.33;;;4.53;;
13040;SDS011;6587;42.728;23.288;2022-09-21T01:39:24;6.67;;;4.60;;
13040;SDS011;6587;42.728;23.288;2022-09-21T01:41:53;5.37;;;4.87;;
13040;SDS011;6587;42.728;23.288;2022-09-21T01:44:24;7.80;;;5.50;;
13040;SDS011;6587;42.728;23.288;2022-09-21T01:46:57;7.13;;;5.77;;
13040;SDS011;6587;42.728;23.288;2022-09-21T01:49:28;8.37;;;5.27;;
13040;SDS011;6587;42.728;23.288;2022-09-21T01:52:01;5.60;;;5.00;;
13040;SDS011;6587;42.728;23.288;2022-09-21T01:54:36;9.13;;;5.27;;
13040;SDS011;6587;42.728;23.288;2022-09-21T01:57:08;6.17;;;4.93;;
13040;SDS011;6587;42.728;23.288;2022-09-21T01:59:45;5.87;;;5.27;;
13040;SDS011;6587;42.728;23.288;2022-09-21T02:02:16;7.87;;;5.90;;
13040;SDS011;6587;42.728;23.288;2022-09-21T02:04:49;5.77;;;5.17;;
13040;SDS011;6587;42.728;23.288;2022-09-21T02:07:16;5.87;;;5.07;;
13040;SDS011;6587;42.728;23.288;2022-09-21T02:09:44;7.53;;;5.23;;
13040;SDS011;6587;42.728;23.288;2022-09-21T02:12:12;7.40;;;5.40;;
13040;SDS011;6587;42.728;23.288;2022-09-21T02:14:39;7.63;;;5.37;;
13040;SDS011;6587;42.728;23.288;2022-09-21T02:17:13;6.13;;;5.53;;
13040;SDS011;6587;42.728;23.288;2022-09-21T02:19:54;7.00;;;5.37;;
13040;SDS011;6587;42.728;23.288;2022-09-21T02:22:30;7.17;;;6.10;;
13040;SDS011;6587;42.728;23.288;2022-09-21T02:25:04;7.53;;;5.40;;
13040;SDS011;6587;42.728;23.288;2022-09-21T02:27:36;5.97;;;5.33;;
13040;SDS011;6587;42.728;23.288;2022-09-21T02:30:12;5.87;;;4.63;;
13040;SDS011;6587;42.728;23.288;2022-09-21T02:32:44;5.87;;;5.20;;
13040;SDS011;6587;42.728;23.288;2022-09-21T02:35:20;10.37;;;6.60;;
13040;SDS011;6587;42.728;23.288;2022-09-21T02:37:59;7.23;;;4.80;;
13040;SDS011;6587;42.728;23.288;2022-09-21T02:40:33;6.90;;;4.77;;
13040;SDS011;6587;42.728;23.288;2022-09-21T02:43:05;7.33;;;5.37;;
13040;SDS011;6587;42.728;23.288;2022-09-21T02:45:38;7.50;;;6.30;;
13040;SDS011;6587;42.728;23.288;2022-09-21T02:48:11;8.97;;;8.07;;
13040;SDS011;6587;42.728;23.288;2022-09-21T02:50:43;10.30;;;8.47;;
13040;SDS011;6587;42.728;23.288;2022-09-21T02:53:14;8.93;;;7.03;;
13040;SDS011;6587;42.728;23.288;2022-09-21T02:55:46;7.93;;;6.30;;
13040;SDS011;6587;42.728;23.288;2022-09-21T02:58:14;10.27;;;5.83;;
13040;SDS011;6587;42.728;23.288;2022-09-21T03:00:43;7.50;;;5.50;;
13040;SDS011;6587;42.728;23.288;2022-09-21T03:03:15;9.83;;;5.33;;
13040;SDS011;6587;42.728;23.288;2022-09-21T03:05:44;7.63;;;5.80;;
13040;SDS011;6587;42.728;23.288;2022-09-21T03:08:13;8.73;;;5.43;;
13040;SDS011;6587;42.728;23.288;2022-09-21T03:10:40;8.03;;;5.80;;
13040;SDS011;6587;42.728;23.288;2022-09-21T03:13:07;8.70;;;6.10;;
13040;SDS011;6587;42.728;23.288;2022-09-21T03:15:35;13.73;;;6.87;;
13040;SDS011;6587;42.728;23.288;2022-09-21T03:18:02;11.43;;;8.00;;
13040;SDS011;6587;42.728;23.288;2022-09-21T03:20:32;16.00;;;8.30;;
13040;SDS011;6587;42.728;23.288;2022-09-21T03:22:59;15.73;;;9.17;;
13040;SDS011;6587;42.728;23.288;2022-09-21T03:25:26;14.23;;;9.37;;
13040;SDS011;6587;42.728;23.288;2022-09-21T03:27:54;12.87;;;8.83;;
13040;SDS011;6587;42.728;23.288;2022-09-21T03:30:22;14.20;;;8.63;;
13040;SDS011;6587;42.728;23.288;2022-09-21T03:32:50;16.97;;;9.67;;
13040;SDS011;6587;42.728;23.288;2022-09-21T03:35:17;16.17;;;9.43;;
13040;SDS011;6587;42.728;23.288;2022-09-21T03:37:47;13.80;;;9.07;;
13040;SDS011;6587;42.728;23.288;2022-09-21T03:40:15;22.40;;;8.97;;
13040;SDS011;6587;42.728;23.288;2022-09-21T03:42:43;20.50;;;9.53;;
13040;SDS011;6587;42.728;23.288;2022-09-21T03:45:11;17.03;;;8.07;;
13040;SDS011;6587;42.728;23.288;2022-09-21T03:47:38;15.77;;;6.80;;
13040;SDS011;6587;42.728;23.288;2022-09-21T03:50:06;13.27;;;6.13;;
13040;SDS011;6587;42.728;23.288;2022-09-21T03:52:34;11.33;;;6.10;;
13040;SDS011;6587;42.728;23.288;2022-09-21T03:55:03;10.93;;;5.60;;
13040;SDS011;6587;42.728;23.288;2022-09-21T03:57:31;9.10;;;5.20;;
13040;SDS011;6587;42.728;23.288;2022-09-21T03:59:59;7.20;;;5.17;;
13040;SDS011;6587;42.728;23.288;2022-09-21T04:02:29;11.07;;;5.67;;
13040;SDS011;6587;42.728;23.288;2022-09-21T04:04:57;7.90;;;4.80;;
13040;SDS011;6587;42.728;23.288;2022-09-21T04:07:24;6.10;;;4.40;;
13040;SDS011;6587;42.728;23.288;2022-09-21T04:09:51;5.13;;;4.63;;
13040;SDS011;6587;42.728;23.288;2022-09-21T04:12:21;8.53;;;5.80;;
13040;SDS011;6587;42.728;23.288;2022-09-21T04:14:48;10.67;;;6.60;;
13040;SDS011;6587;42.728;23.288;2022-09-21T04:17:15;8.57;;;5.37;;
13040;SDS011;6587;42.728;23.288;2022-09-21T04:19:42;13.83;;;5.73;;
13040;SDS011;6587;42.728;23.288;2022-09-21T04:22:10;8.00;;;5.30;;
13040;SDS011;6587;42.728;23.288;2022-09-21T04:24:38;8.93;;;5.87;;
13040;SDS011;6587;42.728;23.288;2022-09-21T04:27:06;7.67;;;5.07;;
13040;SDS011;6587;42.728;23.288;2022-09-21T04:29:34;9.63;;;5.73;;
13040;SDS011;6587;42.728;23.288;2022-09-21T04:32:02;8.63;;;5.40;;
13040;SDS011;6587;42.728;23.288;2022-09-21T04:34:30;9.70;;;5.77;;
13040;SDS011;6587;42.728;23.288;2022-09-21T04:36:57;9.40;;;6.47;;
13040;SDS011;6587;42.728;23.288;2022-09-21T04:39:24;10.63;;;7.13;;
13040;SDS011;6587;42.728;23.288;2022-09-21T04:41:51;11.60;;;6.90;;
13040;SDS011;6587;42.728;23.288;2022-09-21T04:44:18;9.57;;;6.30;;
13040;SDS011;6587;42.728;23.288;2022-09-21T04:46:47;10.63;;;6.13;;
13040;SDS011;6587;42.728;23.288;2022-09-21T04:49:13;8.83;;;6.47;;
13040;SDS011;6587;42.728;23.288;2022-09-21T04:51:40;12.10;;;7.83;;
13040;SDS011;6587;42.728;23.288;2022-09-21T04:54:07;17.90;;;7.67;;
13040;SDS011;6587;42.728;23.288;2022-09-21T04:56:35;19.93;;;10.97;;
13040;SDS011;6587;42.728;23.288;2022-09-21T04:59:02;24.40;;;11.67;;
13040;SDS011;6587;42.728;23.288;2022-09-21T05:01:29;20.23;;;10.40;;
13040;SDS011;6587;42.728;23.288;2022-09-21T05:03:59;17.47;;;8.70;;
13040;SDS011;6587;42.728;23.288;2022-09-21T05:06:27;17.60;;;9.23;;
13040;SDS011;6587;42.728;23.288;2022-09-21T05:08:54;9.77;;;5.57;;
13040;SDS011;6587;42.728;23.288;2022-09-21T05:11:38;8.63;;;6.13;;
13040;SDS011;6587;42.728;23.288;2022-09-21T05:14:06;7.00;;;5.33;;
13040;SDS011;6587;42.728;23.288;2022-09-21T05:16:33;10.63;;;5.83;;
13040;SDS011;6587;42.728;23.288;2022-09-21T05:19:01;9.57;;;6.00;;
13040;SDS011;6587;42.728;23.288;2022-09-21T05:21:29;10.83;;;6.43;;
13040;SDS011;6587;42.728;23.288;2022-09-21T05:23:56;8.07;;;5.83;;
13040;SDS011;6587;42.728;23.288;2022-09-21T05:26:23;11.67;;;6.63;;
13040;SDS011;6587;42.728;23.288;2022-09-21T05:28:51;8.17;;;6.03;;
13040;SDS011;6587;42.728;23.288;2022-09-21T05:31:26;6.97;;;5.03;;
13040;SDS011;6587;42.728;23.288;2022-09-21T05:34:04;7.37;;;5.63;;
13040;SDS011;6587;42.728;23.288;2022-09-21T05:36:48;6.83;;;5.67;;
13040;SDS011;6587;42.728;23.288;2022-09-21T05:39:23;14.00;;;6.20;;
13040;SDS011;6587;42.728;23.288;2022-09-21T05:41:51;13.40;;;6.30;;
13040;SDS011;6587;42.728;23.288;2022-09-21T05:44:19;12.43;;;5.57;;
13040;SDS011;6587;42.728;23.288;2022-09-21T05:46:48;11.63;;;6.07;;
13040;SDS011;6587;42.728;23.288;2022-09-21T05:49:21;10.47;;;5.33;;
13040;SDS011;6587;42.728;23.288;2022-09-21T05:51:55;14.70;;;6.00;;
13040;SDS011;6587;42.728;23.288;2022-09-21T05:54:32;13.23;;;5.70;;
13040;SDS011;6587;42.728;23.288;2022-09-21T05:57:11;11.73;;;6.07;;
13040;SDS011;6587;42.728;23.288;2022-09-21T05:59:48;7.40;;;5.70;;
13040;SDS011;6587;42.728;23.288;2022-09-21T06:02:25;13.30;;;6.60;;
13040;SDS011;6587;42.728;23.288;2022-09-21T06:05:03;16.13;;;6.87;;
13040;SDS011;6587;42.728;23.288;2022-09-21T06:07:35;10.77;;;6.50;;
13040;SDS011;6587;42.728;23.288;2022-09-21T06:10:02;10.80;;;5.90;;
13040;SDS011;6587;42.728;23.288;2022-09-21T06:12:30;11.07;;;6.70;;
13040;SDS011;6587;42.728;23.288;2022-09-21T06:14:57;9.57;;;5.97;;
13040;SDS011;6587;42.728;23.288;2022-09-21T06:17:24;15.37;;;7.20;;
13040;SDS011;6587;42.728;23.288;2022-09-21T06:19:51;9.70;;;6.37;;
13040;SDS011;6587;42.728;23.288;2022-09-21T06:22:20;9.40;;;6.50;;
13040;SDS011;6587;42.728;23.288;2022-09-21T06:24:47;10.63;;;6.77;;
13040;SDS011;6587;42.728;23.288;2022-09-21T06:27:14;7.87;;;6.53;;
13040;SDS011;6587;42.728;23.288;2022-09-21T06:29:40;11.87;;;6.47;;
13040;SDS011;6587;42.728;23.288;2022-09-21T06:32:07;12.37;;;6.27;;
13040;SDS011;6587;42.728;23.288;2022-09-21T06:34:34;8.47;;;5.87;;
13040;SDS011;6587;42.728;23.288;2022-09-21T06:37:02;9.37;;;6.33;;
13040;SDS011;6587;42.728;23.288;2022-09-21T06:39:30;10.70;;;6.13;;
13040;SDS011;6587;42.728;23.288;2022-09-21T06:41:57;9.13;;;5.70;;
13040;SDS011;6587;42.728;23.288;2022-09-21T06:44:25;11.87;;;6.70;;
13040;SDS011;6587;42.728;23.288;2022-09-21T06:46:54;11.17;;;5.93;;
13040;SDS011;6587;42.728;23.288;2022-09-21T06:49:21;5.83;;;5.23;;
13040;SDS011;6587;42.728;23.288;2022-09-21T06:51:47;10.67;;;5.80;;
13040;SDS011;6587;42.728;23.288;2022-09-21T06:54:14;8.17;;;5.00;;
13040;SDS011;6587;42.728;23.288;2022-09-21T06:56:43;7.73;;;5.20;;
13040;SDS011;6587;42.728;23.288;2022-09-21T06:59:10;10.37;;;5.80;;
13040;SDS011;6587;42.728;23.288;2022-09-21T07:01:37;10.77;;;6.00;;
13040;SDS011;6587;42.728;23.288;2022-09-21T07:04:04;8.23;;;5.17;;
13040;SDS011;6587;42.728;23.288;2022-09-21T07:06:33;7.47;;;5.00;;
13040;SDS011;6587;42.728;23.288;2022-09-21T07:09:00;6.03;;;4.70;;
13040;SDS011;6587;42.728;23.288;2022-09-21T07:11:28;9.80;;;4.60;;
13040;SDS011;6587;42.728;23.288;2022-09-21T07:13:56;7.33;;;4.30;;
13040;SDS011;6587;42.728;23.288;2022-09-21T07:16:24;6.43;;;4.20;;
13040;SDS011;6587;42.728;23.288;2022-09-21T07:18:52;5.83;;;4.27;;
13040;SDS011;6587;42.728;23.288;2022-09-21T07:21:19;9.27;;;4.40;;
13040;SDS011;6587;42.728;23.288;2022-09-21T07:23:46;8.57;;;4.10;;
13040;SDS011;6587;42.728;23.288;2022-09-21T07:26:12;6.17;;;4.73;;
13040;SDS011;6587;42.728;23.288;2022-09-21T07:28:40;6.70;;;4.30;;
13040;SDS011;6587;42.728;23.288;2022-09-21T07:31:09;6.40;;;3.77;;
13040;SDS011;6587;42.728;23.288;2022-09-21T07:33:38;5.37;;;3.47;;
13040;SDS011;6587;42.728;23.288;2022-09-21T07:36:05;5.53;;;3.20;;
13040;SDS011;6587;42.728;23.288;2022-09-21T07:38:35;6.20;;;4.17;;
13040;SDS011;6587;42.728;23.288;2022-09-21T07:41:04;7.50;;;3.60;;
13040;SDS011;6587;42.728;23.288;2022-09-21T07:43:31;4.73;;;4.20;;
13040;SDS011;6587;42.728;23.288;2022-09-21T07:45:58;7.20;;;3.40;;
13040;SDS011;6587;42.728;23.288;2022-09-21T07:48:28;4.97;;;3.83;;
13040;SDS011;6587;42.728;23.288;2022-09-21T07:50:59;8.20;;;3.80;;
13040;SDS011;6587;42.728;23.288;2022-09-21T07:53:28;5.33;;;3.67;;
13040;SDS011;6587;42.728;23.288;2022-09-21T07:55:59;4.20;;;3.30;;
13040;SDS011;6587;42.728;23.288;2022-09-21T07:58:26;4.73;;;3.40;;
13040;SDS011;6587;42.728;23.288;2022-09-21T08:01:10;5.83;;;3.33;;
13040;SDS011;6587;42.728;23.288;2022-09-21T08:03:39;3.77;;;3.47;;
13040;SDS011;6587;42.728;23.288;2022-09-21T08:06:06;5.60;;;3.67;;
13040;SDS011;6587;42.728;23.288;2022-09-21T08:08:34;4.47;;;3.43;;
13040;SDS011;6587;42.728;23.288;2022-09-21T08:11:02;3.80;;;3.47;;
13040;SDS011;6587;42.728;23.288;2022-09-21T08:13:29;4.47;;;3.30;;
13040;SDS011;6587;42.728;23.288;2022-09-21T08:15:57;5.20;;;3.37;;
13040;SDS011;6587;42.728;23.288;2022-09-21T08:18:24;3.47;;;2.80;;
13040;SDS011;6587;42.728;23.288;2022-09-21T08:20:55;5.10;;;3.07;;
13040;SDS011;6587;42.728;23.288;2022-09-21T08:23:24;2.97;;;2.70;;
13040;SDS011;6587;42.728;23.288;2022-09-21T08:25:56;4.23;;;3.10;;
13040;SDS011;6587;42.728;23.288;2022-09-21T08:28:25;2.77;;;2.23;;
13040;SDS011;6587;42.728;23.288;2022-09-21T08:30:52;8.47;;;2.67;;
13040;SDS011;6587;42.728;23.288;2022-09-21T08:33:18;3.60;;;2.20;;
13040;SDS011;6587;42.728;23.288;2022-09-21T08:35:50;4.30;;;2.37;;
13040;SDS011;6587;42.728;23.288;2022-09-21T08:38:19;4.63;;;3.27;;
13040;SDS011;6587;42.728;23.288;2022-09-21T08:40:46;2.40;;;2.20;;
13040;SDS011;6587;42.728;23.288;2022-09-21T08:43:14;4.07;;;2.03;;
13040;SDS011;6587;42.728;23.288;2022-09-21T08:45:44;3.60;;;2.20;;
13040;SDS011;6587;42.728;23.288;2022-09-21T08:48:13;3.10;;;2.20;;
13040;SDS011;6587;42.728;23.288;2022-09-21T08:50:45;3.33;;;2.33;;
13040;SDS011;6587;42.728;23.288;2022-09-21T08:53:19;3.80;;;2.37;;
13040;SDS011;6587;42.728;23.288;2022-09-21T08:55:49;3.03;;;2.10;;
13040;SDS011;6587;42.728;23.288;2022-09-21T08:58:19;7.13;;;5.47;;
13040;SDS011;6587;42.728;23.288;2022-09-21T09:00:49;2.97;;;1.87;;
13040;SDS011;6587;42.728;23.288;2022-09-21T09:03:28;2.03;;;1.90;;
13040;SDS011;6587;42.728;23.288;2022-09-21T09:06:09;3.87;;;1.93;;
13040;SDS011;6587;42.728;23.288;2022-09-21T09:08:47;3.00;;;1.90;;
13040;SDS011;6587;42.728;23.288;2022-09-21T09:17:18;1.97;;;1.87;;
13040;SDS011;6587;42.728;23.288;2022-09-21T09:19:54;2.63;;;2.30;;
13040;SDS011;6587;42.728;23.288;2022-09-21T09:22:26;6.43;;;2.77;;
13040;SDS011;6587;42.728;23.288;2022-09-21T09:24:57;2.83;;;2.40;;
13040;SDS011;6587;42.728;23.288;2022-09-21T09:27:29;3.53;;;2.33;;
13040;SDS011;6587;42.728;23.288;2022-09-21T09:30:00;2.60;;;2.10;;
13040;SDS011;6587;42.728;23.288;2022-09-21T09:32:32;4.63;;;2.47;;
13040;SDS011;6587;42.728;23.288;2022-09-21T09:35:04;3.57;;;2.00;;
13040;SDS011;6587;42.728;23.288;2022-09-21T09:37:41;4.07;;;2.10;;
13040;SDS011;6587;42.728;23.288;2022-09-21T09:40:12;3.00;;;2.23;;
13040;SDS011;6587;42.728;23.288;2022-09-21T09:42:44;3.07;;;2.77;;
13040;SDS011;6587;42.728;23.288;2022-09-21T09:45:33;4.37;;;2.63;;
13040;SDS011;6587;42.728;23.288;2022-09-21T09:48:11;3.23;;;2.23;;
13040;SDS011;6587;42.728;23.288;2022-09-21T09:50:57;4.40;;;2.40;;
13040;SDS011;6587;42.728;23.288;2022-09-21T09:53:25;3.50;;;2.00;;
13040;SDS011;6587;42.728;23.288;2022-09-21T09:55:54;1.73;;;1.63;;
13040;SDS011;6587;42.728;23.288;2022-09-21T09:58:24;3.07;;;1.80;;
13040;SDS011;6587;42.728;23.288;2022-09-21T10:01:00;2.53;;;1.90;;
13040;SDS011;6587;42.728;23.288;2022-09-21T10:03:27;2.13;;;1.90;;
13040;SDS011;6587;42.728;23.288;2022-09-21T10:05:54;1.83;;;1.43;;
13040;SDS011;6587;42.728;23.288;2022-09-21T10:08:37;2.00;;;1.80;;
13040;SDS011;6587;42.728;23.288;2022-09-21T10:11:09;3.50;;;1.43;;
13040;SDS011;6587;42.728;23.288;2022-09-21T10:13:37;2.17;;;1.97;;
13040;SDS011;6587;42.728;23.288;2022-09-21T10:16:10;1.70;;;1.60;;
13040;SDS011;6587;42.728;23.288;2022-09-21T10:18:41;1.70;;;1.60;;
13040;SDS011;6587;42.728;23.288;2022-09-21T10:21:16;1.50;;;1.40;;
13040;SDS011;6587;42.728;23.288;2022-09-21T10:23:46;2.33;;;1.60;;
13040;SDS011;6587;42.728;23.288;2022-09-21T10:26:17;1.50;;;1.40;;
13040;SDS011;6587;42.728;23.288;2022-09-21T10:28:55;2.00;;;1.70;;
13040;SDS011;6587;42.728;23.288;2022-09-21T10:31:24;2.20;;;1.50;;
13040;SDS011;6587;42.728;23.288;2022-09-21T10:34:04;1.50;;;1.40;;
13040;SDS011;6587;42.728;23.288;2022-09-21T10:36:36;1.70;;;1.60;;
13040;SDS011;6587;42.728;23.288;2022-09-21T10:39:17;2.13;;;1.50;;
13040;SDS011;6587;42.728;23.288;2022-09-21T10:42:02;1.47;;;1.37;;
13040;SDS011;6587;42.728;23.288;2022-09-21T10:44:35;1.80;;;1.40;;
13040;SDS011;6587;42.728;23.288;2022-09-21T10:47:13;5.90;;;1.80;;
13040;SDS011;6587;42.728;23.288;2022-09-21T10:49:46;1.53;;;1.43;;
13040;SDS011;6587;42.728;23.288;2022-09-21T10:55:06;1.70;;;1.50;;
13040;SDS011;6587;42.728;23.288;2022-09-21T10:57:43;1.47;;;1.37;;
13040;SDS011;6587;42.728;23.288;2022-09-21T11:00:17;2.03;;;1.20;;
13040;SDS011;6587;42.728;23.288;2022-09-21T11:03:00;1.50;;;1.40;;
13040;SDS011;6587;42.728;23.288;2022-09-21T11:05:32;3.90;;;1.33;;
13040;SDS011;6587;42.728;23.288;2022-09-21T11:08:04;1.40;;;1.30;;
13040;SDS011;6587;42.728;23.288;2022-09-21T11:10:39;1.30;;;1.20;;
13040;SDS011;6587;42.728;23.288;2022-09-21T11:13:19;4.37;;;2.00;;
13040;SDS011;6587;42.728;23.288;2022-09-21T11:15:54;2.10;;;1.73;;
13040;SDS011;6587;42.728;23.288;2022-09-21T11:18:29;3.87;;;1.70;;
13040;SDS011;6587;42.728;23.288;2022-09-21T11:21:05;2.00;;;1.60;;
13040;SDS011;6587;42.728;23.288;2022-09-21T11:23:40;2.70;;;1.60;;
13040;SDS011;6587;42.728;23.288;2022-09-21T11:26:17;2.00;;;1.40;;
13040;SDS011;6587;42.728;23.288;2022-09-21T11:28:52;10.40;;;2.97;;
13040;SDS011;6587;42.728;23.288;2022-09-21T11:31:36;2.00;;;1.40;;
13040;SDS011;6587;42.728;23.288;2022-09-21T11:37:47;11.60;;;2.37;;
13040;SDS011;6587;42.728;23.288;2022-09-21T11:40:25;9.87;;;1.73;;
13040;SDS011;6587;42.728;23.288;2022-09-21T11:43:03;13.00;;;2.07;;
13040;SDS011;6587;42.728;23.288;2022-09-21T11:45:47;4.47;;;1.47;;
13040;SDS011;6587;42.728;23.288;2022-09-21T11:48:29;1.67;;;1.43;;
13040;SDS011;6587;42.728;23.288;2022-09-21T11:51:12;2.30;;;1.43;;
13040;SDS011;6587;42.728;23.288;2022-09-21T11:54:02;1.17;;;0.97;;
13040;SDS011;6587;42.728;23.288;2022-09-21T11:56:46;1.30;;;1.20;;
13040;SDS011;6587;42.728;23.288;2022-09-21T11:59:30;3.10;;;1.10;;
13040;SDS011;6587;42.728;23.288;2022-09-21T12:02:16;1.73;;;1.30;;
13040;SDS011;6587;42.728;23.288;2022-09-21T12:04:56;1.47;;;1.00;;
13040;SDS011;6587;42.728;23.288;2022-09-21T12:07:31;0.97;;;0.93;;
13040;SDS011;6587;42.728;23.288;2022-09-21T12:10:17;2.33;;;1.50;;
13040;SDS011;6587;42.728;23.288;2022-09-21T12:13:02;2.63;;;2.33;;
13040;SDS011;6587;42.728;23.288;2022-09-21T12:15:36;3.43;;;3.10;;
13040;SDS011;6587;42.728;23.288;2022-09-21T12:18:13;6.50;;;5.10;;
13040;SDS011;6587;42.728;23.288;2022-09-21T12:20:51;7.83;;;4.40;;
13040;SDS011;6587;42.728;23.288;2022-09-21T12:23:27;5.10;;;2.37;;
13040;SDS011;6587;42.728;23.288;2022-09-21T12:26:02;2.43;;;2.23;;
13040;SDS011;6587;42.728;23.288;2022-09-21T12:28:33;1.60;;;1.50;;
13040;SDS011;6587;42.728;23.288;2022-09-21T12:31:06;1.40;;;1.30;;
13040;SDS011;6587;42.728;23.288;2022-09-21T12:33:40;1.83;;;1.40;;
13040;SDS011;6587;42.728;23.288;2022-09-21T12:36:15;2.90;;;1.20;;
13040;SDS011;6587;42.728;23.288;2022-09-21T12:38:47;3.00;;;1.53;;
13040;SDS011;6587;42.728;23.288;2022-09-21T12:44:06;1.33;;;1.00;;
13040;SDS011;6587;42.728;23.288;2022-09-21T12:46:43;2.10;;;1.23;;
13040;SDS011;6587;42.728;23.288;2022-09-21T12:49:16;1.50;;;1.40;;
13040;SDS011;6587;42.728;23.288;2022-09-21T12:51:47;1.13;;;1.10;;
13040;SDS011;6587;42.728;23.288;2022-09-21T12:54:22;1.00;;;1.00;;
13040;SDS011;6587;42.728;23.288;2022-09-21T12:56:55;2.17;;;1.10;;
13040;SDS011;6587;42.728;23.288;2022-09-21T12:59:33;1.57;;;1.00;;
13040;SDS011;6587;42.728;23.288;2022-09-21T13:02:13;0.90;;;0.90;;
13040;SDS011;6587;42.728;23.288;2022-09-21T13:04:49;2.03;;;1.70;;
13040;SDS011;6587;42.728;23.288;2022-09-21T13:07:37;2.10;;;1.10;;
13040;SDS011;6587;42.728;23.288;2022-09-21T13:10:15;1.37;;;1.27;;
13040;SDS011;6587;42.728;23.288;2022-09-21T13:12:47;1.30;;;1.20;;
13040;SDS011;6587;42.728;23.288;2022-09-21T13:15:21;0.83;;;0.83;;
13040;SDS011;6587;42.728;23.288;2022-09-21T13:17:58;1.77;;;1.20;;
13040;SDS011;6587;42.728;23.288;2022-09-21T13:20:31;3.03;;;1.67;;
13040;SDS011;6587;42.728;23.288;2022-09-21T13:22:59;4.03;;;1.50;;
13040;SDS011;6587;42.728;23.288;2022-09-21T13:25:28;1.10;;;1.00;;
13040;SDS011;6587;42.728;23.288;2022-09-21T13:27:57;1.00;;;1.00;;
13040;SDS011;6587;42.728;23.288;2022-09-21T13:30:31;1.87;;;1.77;;
13040;SDS011;6587;42.728;23.288;2022-09-21T13:33:03;2.10;;;1.80;;
13040;SDS011;6587;42.728;23.288;2022-09-21T13:35:58;1.50;;;1.40;;
13040;SDS011;6587;42.728;23.288;2022-09-21T13:38:29;1.90;;;1.80;;
13040;SDS011;6587;42.728;23.288;2022-09-21T13:40:59;1.23;;;1.20;;
13040;SDS011;6587;42.728;23.288;2022-09-21T13:46:47;3.10;;;1.60;;
13040;SDS011;6587;42.728;23.288;2022-09-21T13:55:16;2.20;;;1.90;;
13040;SDS011;6587;42.728;23.288;2022-09-21T13:57:50;2.23;;;2.00;;
13040;SDS011;6587;42.728;23.288;2022-09-21T14:00:24;2.10;;;1.90;;
13040;SDS011;6587;42.728;23.288;2022-09-21T14:02:59;2.47;;;2.00;;
13040;SDS011;6587;42.728;23.288;2022-09-21T14:05:29;3.37;;;3.03;;
13040;SDS011;6587;42.728;23.288;2022-09-21T14:08:02;1.77;;;1.60;;
13040;SDS011;6587;42.728;23.288;2022-09-21T14:10:32;1.70;;;1.60;;
13040;SDS011;6587;42.728;23.288;2022-09-21T14:13:03;1.70;;;1.60;;
13040;SDS011;6587;42.728;23.288;2022-09-21T14:15:48;1.60;;;1.50;;
13040;SDS011;6587;42.728;23.288;2022-09-21T14:18:18;2.10;;;1.63;;
13040;SDS011;6587;42.728;23.288;2022-09-21T14:26:52;2.47;;;1.43;;
13040;SDS011;6587;42.728;23.288;2022-09-21T14:29:24;2.20;;;1.70;;
13040;SDS011;6587;42.728;23.288;2022-09-21T14:31:57;2.13;;;1.73;;
13040;SDS011;6587;42.728;23.288;2022-09-21T14:34:29;2.80;;;1.97;;
13040;SDS011;6587;42.728;23.288;2022-09-21T14:37:02;2.30;;;2.10;;
13040;SDS011;6587;42.728;23.288;2022-09-21T14:39:37;3.17;;;2.00;;
13040;SDS011;6587;42.728;23.288;2022-09-21T14:42:10;2.40;;;1.97;;
13040;SDS011;6587;42.728;23.288;2022-09-21T14:44:42;2.70;;;1.90;;
13040;SDS011;6587;42.728;23.288;2022-09-21T14:47:22;3.47;;;2.50;;
13040;SDS011;6587;42.728;23.288;2022-09-21T14:49:59;2.07;;;1.80;;
13040;SDS011;6587;42.728;23.288;2022-09-21T14:52:39;1.90;;;1.70;;
13040;SDS011;6587;42.728;23.288;2022-09-21T14:55:17;1.50;;;1.40;;
13040;SDS011;6587;42.728;23.288;2022-09-21T15:00:47;4.43;;;2.30;;
13040;SDS011;6587;42.728;23.288;2022-09-21T15:06:20;5.33;;;2.40;;
13040;SDS011;6587;42.728;23.288;2022-09-21T15:09:16;3.27;;;2.10;;
13040;SDS011;6587;42.728;23.288;2022-09-21T15:12:16;3.67;;;2.10;;
13040;SDS011;6587;42.728;23.288;2022-09-21T15:14:48;3.43;;;2.10;;
13040;SDS011;6587;42.728;23.288;2022-09-21T15:17:23;3.23;;;2.60;;
13040;SDS011;6587;42.728;23.288;2022-09-21T15:19:55;8.63;;;7.30;;
13040;SDS011;6587;42.728;23.288;2022-09-21T15:22:23;2.10;;;1.90;;
13040;SDS011;6587;42.728;23.288;2022-09-21T15:24:52;2.03;;;1.93;;
13040;SDS011;6587;42.728;23.288;2022-09-21T15:27:25;1.60;;;1.50;;
13040;SDS011;6587;42.728;23.288;2022-09-21T15:29:57;1.90;;;1.80;;
13040;SDS011;6587;42.728;23.288;2022-09-21T15:32:31;3.87;;;2.10;;
13040;SDS011;6587;42.728;23.288;2022-09-21T15:35:02;2.93;;;2.13;;
13040;SDS011;6587;42.728;23.288;2022-09-21T15:37:33;3.60;;;2.07;;
13040;SDS011;6587;42.728;23.288;2022-09-21T15:40:02;1.90;;;1.70;;
13040;SDS011;6587;42.728;23.288;2022-09-21T15:42:33;2.00;;;1.80;;
13040;SDS011;6587;42.728;23.288;2022-09-21T15:45:13;2.00;;;1.80;;
13040;SDS011;6587;42.728;23.288;2022-09-21T15:47:41;2.03;;;1.93;;
13040;SDS011;6587;42.728;23.288;2022-09-21T15:50:10;2.40;;;1.80;;
13040;SDS011;6587;42.728;23.288;2022-09-21T15:52:39;4.43;;;2.27;;